Time;durP1;ratioP1;P1;durP2;ratioP2;P2;SDS_P1;SDS_P2;PMS_P1;PMS_P2;Temp;Humidity;BMP_temperature;BMP_pressure;BME280_temperature;BME280_humidity;BME280_pressure;Samples;Min_cycle;Max_cycle;Signal;HPM_P1;HPM_P2
2024/03/15 00:02:13;;;;;;;23.50;15.20;;;;;;;;;;5071873;28;20059;-73
2024/03/15 00:04:38;;;;;;;23.23;14.15;;;;;;;;;;5070631;28;20032;-75
2024/03/15 00:07:05;;;;;;;28.90;15.32;;;;;;;;;;5070493;28;20032;-73
2024/03/15 00:09:31;;;;;;;24.75;14.77;;;;;;;;;;5053766;28;20439;-75
2024/03/15 00:11:57;;;;;;;25.13;15.52;;;;;;;;;;5072013;28;20043;-72
2024/03/15 00:14:24;;;;;;;23.67;14.35;;;;;;;;;;5071677;28;20028;-73
2024/03/15 00:16:50;;;;;;;23.42;14.52;;;;;;;;;;5053706;28;20032;-72
2024/03/15 00:19:19;;;;;;;24.05;14.15;;;;;;;;;;5071797;28;20040;-73
2024/03/15 00:21:45;;;;;;;25.70;15.20;;;;;;;;;;5072015;28;20021;-75
2024/03/15 00:24:12;;;;;;;25.55;14.02;;;;;;;;;;5072213;28;20076;-73
2024/03/15 00:26:39;;;;;;;24.88;15.35;;;;;;;;;;5072091;28;20395;-73
2024/03/15 00:29:04;;;;;;;24.15;13.77;;;;;;;;;;5071767;28;20032;-72
2024/03/15 00:31:35;;;;;;;23.95;15.10;;;;;;;;;;5071628;28;20040;-73
2024/03/15 00:34:00;;;;;;;23.42;14.00;;;;;;;;;;5070617;28;20029;-75
2024/03/15 00:36:26;;;;;;;29.58;14.48;;;;;;;;;;5070339;28;20443;-74
2024/03/15 00:38:54;;;;;;;25.10;15.32;;;;;;;;;;5071365;28;20071;-75
2024/03/15 00:41:21;;;;;;;24.30;14.98;;;;;;;;;;5071598;28;20500;-75
2024/03/15 00:43:47;;;;;;;25.83;15.55;;;;;;;;;;5071181;28;20503;-75
2024/03/15 00:46:13;;;;;;;22.73;14.60;;;;;;;;;;5053186;28;20024;-75
2024/03/15 00:48:40;;;;;;;28.90;16.23;;;;;;;;;;5070945;28;20499;-74
2024/03/15 00:51:05;;;;;;;28.23;15.77;;;;;;;;;;5071086;28;20078;-72
2024/03/15 00:53:31;;;;;;;23.95;14.95;;;;;;;;;;5069371;28;20040;-73
2024/03/15 00:55:57;;;;;;;26.52;15.02;;;;;;;;;;5071068;28;20036;-72
2024/03/15 00:58:23;;;;;;;23.40;15.23;;;;;;;;;;5071179;28;20311;-73
2024/03/15 01:00:49;;;;;;;24.48;15.73;;;;;;;;;;5071321;28;20074;-74
2024/03/15 01:03:20;;;;;;;22.35;14.68;;;;;;;;;;5071531;28;20032;-74
2024/03/15 01:05:46;;;;;;;;;;;;;;;;;;5070144;28;20028;-74
2024/03/15 01:08:13;;;;;;;21.80;13.57;;;;;;;;;;5071219;28;20435;-76
2024/03/15 01:10:41;;;;;;;25.35;15.93;;;;;;;;;;5069522;28;20158;-74
2024/03/15 01:13:07;;;;;;;23.17;13.90;;;;;;;;;;5070856;28;20407;-73
2024/03/15 01:15:32;;;;;;;20.75;14.25;;;;;;;;;;5072933;28;20036;-74
2024/03/15 01:17:58;;;;;;;27.40;14.45;;;;;;;;;;5056578;28;20369;-74
2024/03/15 01:20:23;;;;;;;27.92;15.25;;;;;;;;;;5074579;28;20028;-72
2024/03/15 01:22:50;;;;;;;23.10;14.85;;;;;;;;;;5074518;28;20020;-72
2024/03/15 01:25:16;;;;;;;24.58;14.32;;;;;;;;;;5074841;28;20495;-74
2024/03/15 01:27:42;;;;;;;25.25;15.13;;;;;;;;;;5074902;28;20032;-73
2024/03/15 01:30:11;;;;;;;23.40;15.43;;;;;;;;;;5073612;28;20041;-75
2024/03/15 01:32:37;;;;;;;27.10;16.10;;;;;;;;;;5074754;28;20110;-73
2024/03/15 01:35:03;;;;;;;25.30;14.95;;;;;;;;;;5074729;28;20055;-73
2024/03/15 01:37:29;;;;;;;28.05;16.20;;;;;;;;;;5056836;28;20090;-72
2024/03/15 01:39:54;;;;;;;32.13;15.88;;;;;;;;;;5056112;28;20028;-73
2024/03/15 01:42:20;;;;;;;27.02;15.63;;;;;;;;;;5072630;28;20067;-74
2024/03/15 01:44:53;;;;;;;28.45;14.80;;;;;;;;;;5056205;28;20035;-74
2024/03/15 01:47:26;;;;;;;29.45;16.25;;;;;;;;;;5055958;28;20370;-72
2024/03/15 01:49:55;;;;;;;25.38;15.65;;;;;;;;;;5074705;28;20024;-74
2024/03/15 01:52:22;;;;;;;26.23;16.08;;;;;;;;;;5056153;28;20024;-73
2024/03/15 01:54:48;;;;;;;28.20;17.10;;;;;;;;;;5074025;28;20041;-73
2024/03/15 01:57:14;;;;;;;25.33;15.68;;;;;;;;;;5072985;28;20081;-74
2024/03/15 01:59:41;;;;;;;25.67;15.77;;;;;;;;;;5074211;28;20472;-73
2024/03/15 02:02:13;;;;;;;25.23;16.08;;;;;;;;;;5074283;28;20032;-74
2024/03/15 02:04:39;;;;;;;28.15;15.95;;;;;;;;;;5074095;28;20383;-73
2024/03/15 02:07:04;;;;;;;32.90;16.05;;;;;;;;;;5073831;28;20472;-72
2024/03/15 02:09:30;;;;;;;28.45;15.18;;;;;;;;;;5073672;28;20086;-73
2024/03/15 02:11:56;;;;;;;26.00;14.77;;;;;;;;;;5074130;28;20040;-74
2024/03/15 02:14:22;;;;;;;32.45;17.23;;;;;;;;;;5073080;28;20036;-75
2024/03/15 02:16:48;;;;;;;26.17;15.40;;;;;;;;;;5073452;28;20038;-74
2024/03/15 02:19:14;;;;;;;27.88;16.83;;;;;;;;;;5073279;28;20107;-73
2024/03/15 02:21:43;;;;;;;29.95;17.13;;;;;;;;;;5073354;28;20027;-73
2024/03/15 02:24:10;;;;;;;26.90;15.65;;;;;;;;;;5073778;28;20445;-74
2024/03/15 02:26:36;;;;;;;28.55;15.70;;;;;;;;;;5071681;28;20048;-74
2024/03/15 02:29:02;;;;;;;32.17;16.95;;;;;;;;;;5073522;28;20376;-72
2024/03/15 02:31:27;;;;;;;29.80;18.02;;;;;;;;;;5072884;28;20107;-74
2024/03/15 02:33:54;;;;;;;31.15;17.50;;;;;;;;;;5071921;28;20028;-73
2024/03/15 02:36:20;;;;;;;28.45;15.38;;;;;;;;;;5073312;28;20028;-73
2024/03/15 02:38:47;;;;;;;34.13;16.75;;;;;;;;;;5055648;28;20024;-72
2024/03/15 02:41:13;;;;;;;32.58;16.65;;;;;;;;;;5071728;28;20480;-73
2024/03/15 02:43:44;;;;;;;32.78;17.80;;;;;;;;;;5055213;28;20028;-74
2024/03/15 02:46:10;;;;;;;30.02;17.52;;;;;;;;;;5071820;28;20024;-71
2024/03/15 02:48:39;;;;;;;31.75;17.13;;;;;;;;;;5073078;28;20021;-72
2024/03/15 02:51:05;;;;;;;30.70;17.02;;;;;;;;;;5071576;28;20115;-74
2024/03/15 02:53:31;;;;;;;29.40;16.13;;;;;;;;;;5072842;28;20024;-73
2024/03/15 02:55:58;;;;;;;31.27;17.60;;;;;;;;;;5072800;28;20329;-72
2024/03/15 02:58:23;;;;;;;34.20;16.42;;;;;;;;;;5071597;28;20402;-74
2024/03/15 03:00:50;;;;;;;31.42;16.60;;;;;;;;;;5072987;28;20043;-73
2024/03/15 03:03:16;;;;;;;33.50;17.55;;;;;;;;;;5073315;28;20051;-73
2024/03/15 03:05:41;;;;;;;29.58;16.80;;;;;;;;;;5054759;28;20031;-73
2024/03/15 03:08:07;;;;;;;28.80;16.10;;;;;;;;;;5071348;28;20024;-73
2024/03/15 03:10:32;;;;;;;29.35;16.63;;;;;;;;;;5053834;28;20025;-72
2024/03/15 03:13:00;;;;;;;30.42;15.93;;;;;;;;;;5072339;28;20035;-73
2024/03/15 03:15:26;;;;;;;27.60;15.38;;;;;;;;;;5070674;28;20317;-74
2024/03/15 03:17:51;;;;;;;25.77;15.23;;;;;;;;;;5070943;28;20503;-72
2024/03/15 03:20:21;;;;;;;29.75;15.23;;;;;;;;;;5071135;28;20039;-73
2024/03/15 03:22:51;;;;;;;29.08;15.95;;;;;;;;;;5054730;28;20029;-75
2024/03/15 03:25:20;;;;;;;28.17;16.38;;;;;;;;;;5071049;28;20029;-72
2024/03/15 03:27:47;;;;;;;35.47;17.05;;;;;;;;;;5054776;28;20032;-75
2024/03/15 03:30:14;;;;;;;33.10;17.25;;;;;;;;;;5070914;28;20089;-73
2024/03/15 03:32:40;;;;;;;34.10;16.90;;;;;;;;;;5072160;28;20077;-72
2024/03/15 03:35:06;;;;;;;27.38;15.32;;;;;;;;;;5072471;28;20028;-72
2024/03/15 03:37:32;;;;;;;30.08;17.13;;;;;;;;;;5036746;28;20126;-74
2024/03/15 03:39:58;;;;;;;30.52;17.38;;;;;;;;;;5053826;28;20043;-73
2024/03/15 03:42:25;;;;;;;34.47;18.00;;;;;;;;;;5070372;28;20028;-72
2024/03/15 03:44:51;;;;;;;30.92;16.77;;;;;;;;;;5072397;28;20032;-73
2024/03/15 03:47:16;;;;;;;28.65;16.00;;;;;;;;;;5072132;28;20038;-72
2024/03/15 03:49:42;;;;;;;34.75;18.67;;;;;;;;;;5072174;28;20024;-73
2024/03/15 03:52:07;;;;;;;33.17;17.73;;;;;;;;;;5053853;28;20479;-73
2024/03/15 03:54:33;;;;;;;32.08;17.00;;;;;;;;;;5070703;28;20028;-73
2024/03/15 03:56:59;;;;;;;29.90;16.83;;;;;;;;;;5053798;28;20028;-72
2024/03/15 03:59:28;;;;;;;30.98;16.80;;;;;;;;;;5070104;28;20094;-73
2024/03/15 04:01:54;;;;;;;29.23;15.98;;;;;;;;;;5071623;28;20425;-75
2024/03/15 04:04:21;;;;;;;29.05;15.60;;;;;;;;;;5070080;28;20109;-73
2024/03/15 04:06:51;;;;;;;32.22;16.95;;;;;;;;;;5072326;28;20359;-73
2024/03/15 04:09:19;;;;;;;31.25;16.75;;;;;;;;;;5072256;28;20021;-73
2024/03/15 04:11:45;;;;;;;30.13;17.33;;;;;;;;;;5071590;28;20021;-72
2024/03/15 04:14:14;;;;;;;35.80;17.42;;;;;;;;;;5053905;28;20035;-72
2024/03/15 04:16:40;;;;;;;28.40;15.88;;;;;;;;;;5072258;28;20330;-74
2024/03/15 04:19:08;;;;;;;28.48;15.80;;;;;;;;;;5072035;28;20040;-73
2024/03/15 04:21:36;;;;;;;28.53;14.03;;;;;;;;;;5071756;28;20040;-71
2024/03/15 04:24:03;;;;;;;27.97;14.57;;;;;;;;;;5071362;28;20029;-72
2024/03/15 04:26:31;;;;;;;29.20;15.50;;;;;;;;;;5053351;28;20105;-73
2024/03/15 04:28:58;;;;;;;27.33;13.93;;;;;;;;;;5071454;28;20492;-73
2024/03/15 04:31:23;;;;;;;27.67;14.50;;;;;;;;;;5071059;28;20043;-75
2024/03/15 04:33:52;;;;;;;25.20;14.37;;;;;;;;;;5053670;28;20032;-73
2024/03/15 04:36:18;;;;;;;26.90;15.17;;;;;;;;;;5052984;28;20032;-74
2024/03/15 04:38:44;;;;;;;30.38;15.15;;;;;;;;;;5071262;28;20051;-72
2024/03/15 04:41:09;;;;;;;29.73;14.98;;;;;;;;;;5070730;28;20476;-74
2024/03/15 04:43:38;;;;;;;25.60;14.48;;;;;;;;;;5072077;28;20028;-75
2024/03/15 04:46:04;;;;;;;35.53;16.67;;;;;;;;;;5071348;28;20040;-75
2024/03/15 04:48:30;;;;;;;29.63;15.82;;;;;;;;;;5071348;28;20024;-73
2024/03/15 04:50:56;;;;;;;29.63;15.95;;;;;;;;;;5056797;28;20020;-73
2024/03/15 04:53:21;;;;;;;27.45;16.00;;;;;;;;;;5057647;28;20135;-73
2024/03/15 04:55:47;;;;;;;26.23;13.57;;;;;;;;;;5074882;28;20041;-75
2024/03/15 04:58:14;;;;;;;28.83;15.38;;;;;;;;;;5075167;28;20028;-72
2024/03/15 05:00:41;;;;;;;29.95;15.18;;;;;;;;;;5075148;28;20029;-75
2024/03/15 05:03:07;;;;;;;28.10;15.68;;;;;;;;;;5074955;28;20413;-73
2024/03/15 05:05:32;;;;;;;27.08;14.20;;;;;;;;;;5073684;28;20044;-73
2024/03/15 05:07:58;;;;;;;28.23;14.53;;;;;;;;;;5075202;28;20443;-72
2024/03/15 05:10:24;;;;;;;36.60;15.10;;;;;;;;;;5057037;28;20028;-73
2024/03/15 05:12:50;;;;;;;23.23;12.87;;;;;;;;;;5073633;28;20115;-73
2024/03/15 05:15:16;;;;;;;24.30;12.85;;;;;;;;;;5073336;28;20036;-75
2024/03/15 05:17:42;;;;;;;28.25;14.20;;;;;;;;;;5074250;28;20035;-73
2024/03/15 05:20:15;;;;;;;27.30;13.60;;;;;;;;;;5074279;28;20055;-73
2024/03/15 05:22:44;;;;;;;26.08;13.18;;;;;;;;;;5072929;28;20404;-72
2024/03/15 05:25:13;;;;;;;24.77;12.18;;;;;;;;;;5073450;28;20170;-72
2024/03/15 05:27:40;;;;;;;23.20;12.23;;;;;;;;;;5056475;28;20492;-74
2024/03/15 05:30:07;;;;;;;22.33;12.88;;;;;;;;;;5074744;28;20337;-73
2024/03/15 05:32:33;;;;;;;28.88;13.00;;;;;;;;;;5074754;28;20020;-74
2024/03/15 05:35:02;;;;;;;21.17;12.00;;;;;;;;;;5073938;28;20036;-73
2024/03/15 05:37:28;;;;;;;22.67;12.50;;;;;;;;;;5074113;28;20393;-73
2024/03/15 05:39:55;;;;;;;21.65;11.77;;;;;;;;;;5073767;28;20028;-74
2024/03/15 05:42:20;;;;;;;21.70;12.48;;;;;;;;;;5073521;28;20032;-73
2024/03/15 05:44:47;;;;;;;22.45;13.02;;;;;;;;;;5073680;28;20034;-74
2024/03/15 05:47:16;;;;;;;22.38;12.23;;;;;;;;;;5072664;28;20455;-72
2024/03/15 05:49:41;;;;;;;20.92;11.70;;;;;;;;;;5074192;28;20456;-73
2024/03/15 05:52:10;;;;;;;23.13;12.85;;;;;;;;;;5073048;28;20031;-72
2024/03/15 05:54:42;;;;;;;27.75;13.52;;;;;;;;;;5039504;28;20032;-74
2024/03/15 05:57:08;;;;;;;20.48;11.32;;;;;;;;;;5055260;28;20480;-76
2024/03/15 05:59:34;;;;;;;19.88;12.02;;;;;;;;;;5055804;28;20060;-74
2024/03/15 06:02:00;;;;;;;24.35;11.55;;;;;;;;;;5072522;28;20048;-72
2024/03/15 06:04:25;;;;;;;35.05;12.60;;;;;;;;;;5074052;28;20486;-74
2024/03/15 06:06:51;;;;;;;28.25;11.95;;;;;;;;;;5072390;28;20453;-74
2024/03/15 06:09:16;;;;;;;19.88;11.32;;;;;;;;;;5073214;28;20492;-74
2024/03/15 06:11:43;;;;;;;27.95;11.95;;;;;;;;;;5072431;28;20055;-73
2024/03/15 06:14:11;;;;;;;30.33;12.60;;;;;;;;;;5073719;28;20024;-75
2024/03/15 06:16:37;;;;;;;24.50;11.85;;;;;;;;;;5073685;28;20341;-75
2024/03/15 06:19:04;;;;;;;21.45;11.02;;;;;;;;;;5073838;28;20024;-74
2024/03/15 06:21:31;;;;;;;20.48;11.52;;;;;;;;;;5055722;28;20028;-76
2024/03/15 06:23:56;;;;;;;25.83;11.45;;;;;;;;;;5055843;28;20035;-75
2024/03/15 06:26:22;;;;;;;21.48;10.95;;;;;;;;;;5073226;28;20024;-75
2024/03/15 06:28:52;;;;;;;24.60;11.05;;;;;;;;;;5073429;28;20025;-73
2024/03/15 06:31:18;;;;;;;26.60;13.38;;;;;;;;;;5055295;28;20036;-73
2024/03/15 06:33:44;;;;;;;24.25;10.48;;;;;;;;;;5071630;28;20107;-74
2024/03/15 06:36:16;;;;;;;20.63;11.48;;;;;;;;;;5073086;28;20028;-75
2024/03/15 06:38:51;;;;;;;20.85;10.48;;;;;;;;;;5052202;28;21501;-74
2024/03/15 06:43:47;;;;;;;23.52;12.55;;;;;;;;;;5072913;28;20433;-75
2024/03/15 06:46:23;;;;;;;18.50;10.82;;;;;;;;;;5073121;28;20388;-74
2024/03/15 06:48:56;;;;;;;18.05;10.63;;;;;;;;;;5072482;28;20067;-75
2024/03/15 06:54:09;;;;;;;24.70;11.57;;;;;;;;;;5068261;28;20039;-75
2024/03/15 06:56:38;;;;;;;32.60;12.27;;;;;;;;;;5054633;28;20025;-74
2024/03/15 06:59:04;;;;;;;20.25;10.32;;;;;;;;;;5055082;28;20028;-75
2024/03/15 07:01:30;;;;;;;20.75;12.48;;;;;;;;;;5051135;28;20870;-77
2024/03/15 07:03:58;;;;;;;20.40;10.57;;;;;;;;;;5064858;28;20024;-76
2024/03/15 07:06:25;;;;;;;19.73;11.63;;;;;;;;;;5074583;28;20088;-75
2024/03/15 07:08:51;;;;;;;19.45;10.70;;;;;;;;;;5077778;28;20573;-75
2024/03/15 07:11:18;;;;;;;21.45;11.07;;;;;;;;;;5069718;28;20024;-73
2024/03/15 07:13:45;;;;;;;17.45;10.13;;;;;;;;;;5090209;28;20054;-74
2024/03/15 07:16:11;;;;;;;17.65;11.40;;;;;;;;;;5056567;28;20025;-73
2024/03/15 07:18:39;;;;;;;19.95;11.20;;;;;;;;;;5042430;28;20028;-74
2024/03/15 07:21:09;;;;;;;18.83;10.55;;;;;;;;;;5061166;28;20443;-76
2024/03/15 07:23:35;;;;;;;20.52;10.55;;;;;;;;;;5072203;28;20111;-76
2024/03/15 07:26:02;;;;;;;22.50;11.35;;;;;;;;;;5056695;28;20032;-75
2024/03/15 07:28:28;;;;;;;20.63;10.23;;;;;;;;;;5053685;28;20484;-73
2024/03/15 07:30:55;;;;;;;18.42;12.02;;;;;;;;;;5051018;28;20082;-75
2024/03/15 07:33:21;;;;;;;22.38;11.20;;;;;;;;;;5069561;28;20039;-75
2024/03/15 07:35:49;;;;;;;21.98;11.63;;;;;;;;;;5050900;28;20020;-75
2024/03/15 07:38:15;;;;;;;19.98;11.57;;;;;;;;;;5078069;28;20511;-76
2024/03/15 07:41:11;;;;;;;21.38;13.82;;;;;;;;;;5071956;28;20008;-89
2024/03/15 07:43:36;;;;;;;24.77;12.07;;;;;;;;;;5072432;28;20017;-80
2024/03/15 07:46:05;;;;;;;24.08;12.35;;;;;;;;;;5057906;28;20058;-82
2024/03/15 07:48:32;;;;;;;17.83;11.20;;;;;;;;;;5072578;28;20104;-80
2024/03/15 07:50:59;;;;;;;19.42;10.93;;;;;;;;;;5048158;28;20055;-86
2024/03/15 07:53:27;;;;;;;20.40;11.15;;;;;;;;;;5058739;28;20024;-88
2024/03/15 07:55:54;;;;;;;19.35;10.65;;;;;;;;;;5086483;28;20012;-87
2024/03/15 07:58:20;;;;;;;21.20;11.20;;;;;;;;;;5040166;28;20029;-86
2024/03/15 08:00:48;;;;;;;20.45;10.50;;;;;;;;;;5085765;28;20134;-87
2024/03/15 08:03:18;;;;;;;16.33;9.68;;;;;;;;;;5086781;28;20092;-88
2024/03/15 08:05:44;;;;;;;19.42;10.68;;;;;;;;;;5059702;28;20020;-87
2024/03/15 08:08:10;;;;;;;15.35;9.82;;;;;;;;;;5085488;28;20031;-89
2024/03/15 08:10:35;;;;;;;16.23;10.32;;;;;;;;;;5067681;28;20024;-87
2024/03/15 08:13:02;;;;;;;16.23;9.80;;;;;;;;;;5069614;28;20613;-86
2024/03/15 08:15:32;;;;;;;18.70;11.50;;;;;;;;;;5067805;28;20157;-87
2024/03/15 08:18:00;;;;;;;18.90;10.57;;;;;;;;;;5100576;28;20047;-87
2024/03/15 08:20:26;;;;;;;19.63;10.80;;;;;;;;;;5068040;28;20044;-86
2024/03/15 08:22:55;;;;;;;24.27;11.82;;;;;;;;;;5071009;28;20028;-85
2024/03/15 08:25:23;;;;;;;21.63;11.25;;;;;;;;;;5068078;28;20024;-90
2024/03/15 08:28:02;;;;;;;19.65;12.05;;;;;;;;;;5069237;28;20038;-89
2024/03/15 08:30:28;;;;;;;21.95;12.40;;;;;;;;;;5064228;28;20032;-80
2024/03/15 08:32:54;;;;;;;21.55;13.13;;;;;;;;;;5061109;28;20100;-88
2024/03/15 08:35:24;;;;;;;18.42;11.07;;;;;;;;;;5074361;28;20020;-85
2024/03/15 08:37:52;;;;;;;19.73;11.90;;;;;;;;;;5081430;28;20177;-85
2024/03/15 08:40:18;;;;;;;18.95;11.02;;;;;;;;;;5081937;28;20024;-82
2024/03/15 08:42:45;;;;;;;18.40;10.60;;;;;;;;;;5084486;28;20054;-81
2024/03/15 08:45:14;;;;;;;19.50;11.35;;;;;;;;;;5102566;28;20115;-81
2024/03/15 08:47:40;;;;;;;15.77;10.38;;;;;;;;;;5094368;28;20028;-85
2024/03/15 08:50:11;;;;;;;19.20;11.02;;;;;;;;;;5077902;28;20512;-81
2024/03/15 08:52:41;;;;;;;16.20;10.03;;;;;;;;;;5066397;28;20029;-80
2024/03/15 08:55:10;;;;;;;16.67;9.70;;;;;;;;;;5067950;28;20507;-84
2024/03/15 08:57:36;;;;;;;14.43;9.60;;;;;;;;;;5091706;28;20009;-85
2024/03/15 09:00:14;;;;;;;15.93;9.95;;;;;;;;;;5078449;28;20023;-85
2024/03/15 09:02:59;;;;;;;17.88;9.73;;;;;;;;;;5061318;28;20024;-86
2024/03/15 09:05:26;;;;;;;15.93;10.00;;;;;;;;;;5081699;28;20084;-85
2024/03/15 09:08:22;;;;;;;14.40;9.27;;;;;;;;;;5075093;28;20032;-83
2024/03/15 09:10:48;;;;;;;16.08;8.90;;;;;;;;;;5072826;28;20025;-79
2024/03/15 09:13:16;;;;;;;17.65;9.85;;;;;;;;;;5093351;28;20030;-84
2024/03/15 09:15:54;;;;;;;15.55;9.82;;;;;;;;;;5091802;28;20039;-86
2024/03/15 09:18:47;;;;;;;22.85;9.35;;;;;;;;;;5083816;28;20052;-87
2024/03/15 09:21:12;;;;;;;;;;;;;;;;;;5088772;28;20047;-84
2024/03/15 09:23:38;;;;;;;21.42;9.02;;;;;;;;;;5097330;28;19924;-82
2024/03/15 09:26:06;;;;;;;13.48;9.20;;;;;;;;;;5089960;28;20052;-85
2024/03/15 09:28:43;;;;;;;15.63;9.07;;;;;;;;;;5092776;28;20465;-85
2024/03/15 09:31:14;;;;;;;17.60;9.18;;;;;;;;;;5088505;28;20032;-83
2024/03/15 09:33:47;;;;;;;20.02;9.15;;;;;;;;;;5075335;28;20119;-84
2024/03/15 09:36:17;;;;;;;15.65;9.27;;;;;;;;;;5094888;28;20036;-85
2024/03/15 09:38:46;;;;;;;14.30;9.18;;;;;;;;;;5081960;28;20056;-83
2024/03/15 09:41:23;;;;;;;12.13;8.38;;;;;;;;;;5064477;28;20303;-83
2024/03/15 09:43:53;;;;;;;15.55;9.05;;;;;;;;;;5062111;28;20133;-83
2024/03/15 09:46:24;;;;;;;14.15;8.85;;;;;;;;;;5077571;28;20104;-82
2024/03/15 09:48:50;;;;;;;;;;;;;;;;;;5080691;28;20059;-82
2024/03/15 09:51:20;;;;;;;16.13;9.85;;;;;;;;;;5077028;28;19908;-83
2024/03/15 09:53:48;;;;;;;16.17;9.63;;;;;;;;;;5080911;28;20104;-83
2024/03/15 09:56:21;;;;;;;15.32;9.98;;;;;;;;;;5089873;28;20016;-84
2024/03/15 09:58:54;;;;;;;18.08;10.93;;;;;;;;;;5080823;28;20035;-83
2024/03/15 10:01:21;;;;;;;17.17;9.77;;;;;;;;;;5060027;28;20043;-82
2024/03/15 10:03:47;;;;;;;21.35;9.40;;;;;;;;;;5103854;28;20012;-80
2024/03/15 10:06:15;;;;;;;21.08;10.10;;;;;;;;;;5094498;28;20027;-81
2024/03/15 10:08:43;;;;;;;14.10;9.43;;;;;;;;;;5093293;28;20009;-82
2024/03/15 10:11:14;;;;;;;15.93;10.00;;;;;;;;;;5075649;28;20484;-84
2024/03/15 10:13:40;;;;;;;17.35;9.98;;;;;;;;;;5074370;28;20092;-79
2024/03/15 10:16:09;;;;;;;20.00;10.23;;;;;;;;;;5073554;28;20028;-80
2024/03/15 10:18:38;;;;;;;17.45;9.63;;;;;;;;;;5068519;28;20027;-80
2024/03/15 10:21:07;;;;;;;29.30;11.60;;;;;;;;;;5092425;28;20111;-80
2024/03/15 10:23:33;;;;;;;15.15;9.05;;;;;;;;;;5070586;28;20028;-81
2024/03/15 10:26:03;;;;;;;16.52;9.10;;;;;;;;;;5094286;28;20558;-81
2024/03/15 10:28:31;;;;;;;14.10;8.38;;;;;;;;;;5058088;28;20036;-80
2024/03/15 10:30:57;;;;;;;13.13;9.02;;;;;;;;;;5074714;28;20052;-77
2024/03/15 10:33:24;;;;;;;13.38;8.63;;;;;;;;;;5074744;28;20047;-80
2024/03/15 10:35:51;;;;;;;16.10;8.45;;;;;;;;;;5075158;28;20017;-79
2024/03/15 10:38:18;;;;;;;14.68;8.20;;;;;;;;;;5068764;28;20055;-77
2024/03/15 10:40:44;;;;;;;12.93;7.60;;;;;;;;;;5089836;28;20040;-79
2024/03/15 10:43:12;;;;;;;18.48;8.98;;;;;;;;;;5071572;28;20043;-78
2024/03/15 10:45:43;;;;;;;12.80;8.55;;;;;;;;;;5072175;28;20267;-79
2024/03/15 10:48:12;;;;;;;11.57;7.85;;;;;;;;;;5093382;28;20028;-82
2024/03/15 10:50:42;;;;;;;13.90;8.07;;;;;;;;;;5074321;28;20028;-84
2024/03/15 10:53:17;;;;;;;13.60;7.32;;;;;;;;;;5075932;28;20046;-86
2024/03/15 10:55:49;;;;;;;12.73;7.72;;;;;;;;;;5076402;28;20024;-79
2024/03/15 10:58:36;;;;;;;10.85;6.68;;;;;;;;;;5073122;28;20063;-83
2024/03/15 11:01:11;;;;;;;13.80;7.28;;;;;;;;;;5095368;28;20040;-80
2024/03/15 11:03:50;;;;;;;13.20;7.10;;;;;;;;;;5075824;28;20024;-82
2024/03/15 11:06:17;;;;;;;13.75;6.55;;;;;;;;;;5073507;28;20024;-80
2024/03/15 11:08:45;;;;;;;14.38;7.10;;;;;;;;;;5089583;28;20554;-81
2024/03/15 11:11:13;;;;;;;12.48;6.80;;;;;;;;;;5056161;28;20484;-80
2024/03/15 11:13:51;;;;;;;9.32;6.22;;;;;;;;;;5087773;28;20097;-81
2024/03/15 11:16:27;;;;;;;16.52;8.20;;;;;;;;;;5089586;28;20074;-80
2024/03/15 11:19:07;;;;;;;22.30;8.70;;;;;;;;;;5099034;28;20039;-80
2024/03/15 11:21:33;;;;;;;14.27;7.45;;;;;;;;;;5105611;28;20084;-77
2024/03/15 11:24:07;;;;;;;12.50;7.50;;;;;;;;;;5092974;28;20497;-76
2024/03/15 11:26:32;;;;;;;11.88;6.75;;;;;;;;;;5082149;28;20095;-78
2024/03/15 11:28:58;;;;;;;17.10;7.80;;;;;;;;;;5083180;28;20032;-79
2024/03/15 11:31:28;;;;;;;24.08;9.13;;;;;;;;;;5065901;28;20088;-75
2024/03/15 11:33:59;;;;;;;16.00;7.85;;;;;;;;;;5085931;28;20424;-78
2024/03/15 11:36:27;;;;;;;16.40;7.80;;;;;;;;;;5082969;28;20039;-76
2024/03/15 11:39:08;;;;;;;13.55;7.20;;;;;;;;;;5062905;28;20081;-76
2024/03/15 11:41:40;;;;;;;12.23;6.95;;;;;;;;;;5043819;28;20033;-77
2024/03/15 11:44:11;;;;;;;14.07;7.03;;;;;;;;;;5060848;28;20029;-77
2024/03/15 11:46:37;;;;;;;10.70;6.82;;;;;;;;;;5045395;28;20021;-77
2024/03/15 11:49:03;;;;;;;12.15;6.85;;;;;;;;;;5042992;28;20052;-77
2024/03/15 11:51:32;;;;;;;7.95;5.20;;;;;;;;;;5043527;28;20023;-77
2024/03/15 11:53:57;;;;;;;9.68;5.30;;;;;;;;;;5081867;28;20024;-77
2024/03/15 11:56:34;;;;;;;11.32;5.47;;;;;;;;;;5102587;28;20506;-77
2024/03/15 11:59:02;;;;;;;6.25;4.25;;;;;;;;;;5073980;28;20099;-77
2024/03/15 12:01:30;;;;;;;7.32;4.22;;;;;;;;;;5067641;28;20065;-78
2024/03/15 12:03:56;;;;;;;8.43;4.30;;;;;;;;;;5075971;28;20062;-79
2024/03/15 12:06:22;;;;;;;6.70;4.00;;;;;;;;;;5081793;28;20384;-76
2024/03/15 12:08:54;;;;;;;5.60;3.95;;;;;;;;;;5088769;28;20015;-77
2024/03/15 12:11:21;;;;;;;6.40;4.35;;;;;;;;;;5100409;28;20033;-80
2024/03/15 12:13:53;;;;;;;6.63;3.63;;;;;;;;;;5082125;28;20121;-77
2024/03/15 12:16:23;;;;;;;4.47;3.55;;;;;;;;;;5081081;28;20024;-77
2024/03/15 12:18:51;;;;;;;5.15;3.33;;;;;;;;;;5087049;28;20122;-78
2024/03/15 12:21:17;;;;;;;10.38;3.25;;;;;;;;;;5100338;28;20468;-74
2024/03/15 12:23:43;;;;;;;13.90;3.50;;;;;;;;;;5081045;28;20112;-77
2024/03/15 12:26:09;;;;;;;6.78;3.58;;;;;;;;;;5065598;28;20039;-77
2024/03/15 12:28:38;;;;;;;6.22;3.38;;;;;;;;;;5074362;28;20020;-79
2024/03/15 12:31:04;;;;;;;5.15;3.63;;;;;;;;;;5061492;28;20087;-77
2024/03/15 12:33:30;;;;;;;4.95;2.90;;;;;;;;;;5059089;28;20040;-75
2024/03/15 12:35:59;;;;;;;5.75;3.33;;;;;;;;;;5043473;28;20033;-77
2024/03/15 12:38:28;;;;;;;7.43;3.20;;;;;;;;;;5056184;28;20586;-76
2024/03/15 12:40:56;;;;;;;6.53;4.05;;;;;;;;;;5086313;28;20054;-77
2024/03/15 12:43:24;;;;;;;6.85;3.50;;;;;;;;;;5088083;28;20028;-77
2024/03/15 12:45:50;;;;;;;5.45;3.60;;;;;;;;;;5061752;28;20204;-78
2024/03/15 12:48:17;;;;;;;4.85;3.13;;;;;;;;;;5085814;28;20399;-77
2024/03/15 12:50:46;;;;;;;9.40;3.40;;;;;;;;;;5093200;28;20020;-78
2024/03/15 12:53:13;;;;;;;4.63;3.00;;;;;;;;;;5063465;28;20043;-77
2024/03/15 12:55:40;;;;;;;3.92;2.83;;;;;;;;;;5056081;28;20029;-77
2024/03/15 12:58:07;;;;;;;6.70;2.65;;;;;;;;;;5083600;28;20024;-76
2024/03/15 13:00:33;;;;;;;6.13;2.80;;;;;;;;;;5045567;28;20044;-77
2024/03/15 13:02:59;;;;;;;3.45;2.47;;;;;;;;;;5061871;28;20111;-77
2024/03/15 13:05:25;;;;;;;3.60;2.45;;;;;;;;;;5074339;28;20056;-78
2024/03/15 13:07:52;;;;;;;9.48;2.95;;;;;;;;;;5073558;28;20033;-77
2024/03/15 13:10:20;;;;;;;10.43;4.95;;;;;;;;;;5062544;28;20032;-76
2024/03/15 13:12:51;;;;;;;5.63;2.45;;;;;;;;;;5067763;28;20027;-78
2024/03/15 13:15:17;;;;;;;4.55;2.55;;;;;;;;;;5049746;28;20024;-76
2024/03/15 13:17:44;;;;;;;6.53;2.88;;;;;;;;;;5080193;28;20067;-77
2024/03/15 13:20:15;;;;;;;7.85;3.70;;;;;;;;;;5057395;28;20029;-76
2024/03/15 13:22:42;;;;;;;4.03;2.38;;;;;;;;;;5076166;28;20028;-75
2024/03/15 13:25:12;;;;;;;3.33;2.42;;;;;;;;;;5060685;28;20025;-78
2024/03/15 13:27:38;;;;;;;8.70;3.95;;;;;;;;;;5064868;28;20060;-77
2024/03/15 13:30:16;;;;;;;10.23;2.88;;;;;;;;;;5083345;28;20024;-76
2024/03/15 13:32:43;;;;;;;7.90;2.25;;;;;;;;;;5064944;28;20025;-74
2024/03/15 13:35:15;;;;;;;4.40;2.17;;;;;;;;;;5062554;28;20047;-77
2024/03/15 13:37:42;;;;;;;7.20;2.75;;;;;;;;;;5066838;28;20032;-76
2024/03/15 13:40:15;;;;;;;5.90;2.60;;;;;;;;;;5084583;28;20039;-77
2024/03/15 13:42:42;;;;;;;3.20;2.38;;;;;;;;;;5066230;28;20115;-76
2024/03/15 13:45:15;;;;;;;6.47;2.90;;;;;;;;;;5064195;28;20030;-76
2024/03/15 13:47:42;;;;;;;6.53;3.08;;;;;;;;;;5083945;28;20060;-77
2024/03/15 13:50:15;;;;;;;4.20;2.58;;;;;;;;;;5065548;28;20027;-76
2024/03/15 13:52:45;;;;;;;5.45;2.50;;;;;;;;;;5058670;28;20029;-76
2024/03/15 13:55:16;;;;;;;3.20;2.42;;;;;;;;;;5062355;28;20358;-76
2024/03/15 13:57:42;;;;;;;3.85;2.38;;;;;;;;;;5081717;28;20081;-74
2024/03/15 14:00:38;;;;;;;3.80;2.40;;;;;;;;;;5070715;28;20035;-77
2024/03/15 14:03:16;;;;;;;6.40;2.92;;;;;;;;;;5052049;28;20567;-74
2024/03/15 14:05:42;;;;;;;8.40;3.17;;;;;;;;;;5065087;28;20020;-78
2024/03/15 14:08:15;;;;;;;7.43;3.72;;;;;;;;;;5063274;28;20020;-76
2024/03/15 14:10:42;;;;;;;6.75;2.58;;;;;;;;;;5072705;28;20495;-76
2024/03/15 14:13:13;;;;;;;4.30;3.10;;;;;;;;;;5065459;28;20017;-77
2024/03/15 14:15:39;;;;;;;7.85;3.88;;;;;;;;;;5081350;28;20492;-75
2024/03/15 14:18:10;;;;;;;6.18;2.65;;;;;;;;;;5082044;28;20221;-74
2024/03/15 14:20:37;;;;;;;4.13;2.60;;;;;;;;;;5082050;28;20034;-75
2024/03/15 14:23:05;;;;;;;3.90;2.38;;;;;;;;;;5062856;28;20024;-75
2024/03/15 14:25:34;;;;;;;7.10;2.63;;;;;;;;;;5029739;28;20025;-76
2024/03/15 14:28:02;;;;;;;3.47;2.75;;;;;;;;;;5065640;28;20040;-78
2024/03/15 14:30:29;;;;;;;6.43;2.60;;;;;;;;;;5085252;28;20020;-76
2024/03/15 14:32:55;;;;;;;5.05;2.80;;;;;;;;;;5076812;28;20085;-76
2024/03/15 14:35:25;;;;;;;6.85;3.10;;;;;;;;;;5102149;28;20032;-77
2024/03/15 14:37:51;;;;;;;5.43;3.00;;;;;;;;;;5082938;28;20043;-75